createdAt,value
2018-01-13T00:00:50.100Z,92.50
2018-01-13T00:01:50.091Z,82.70
2018-01-13T00:02:50.083Z,86.40
2018-01-13T00:03:50.074Z,88.90
2018-01-13T00:04:50.062Z,92.40
2018-01-13T00:05:50.054Z,84.10
2018-01-13T00:06:50.047Z,78.70
2018-01-13T00:07:50.034Z,79.10
2018-01-13T00:08:50.028Z,84.60
2018-01-13T00:09:50.015Z,83.80
2018-01-13T00:10:50.009Z,86.90
2018-01-13T00:11:49.992Z,84.10
2018-01-13T00:12:49.988Z,83.50
2018-01-13T00:13:49.976Z,87.80
2018-01-13T00:14:49.967Z,88.00
2018-01-13T00:15:49.957Z,83.30
2018-01-13T00:16:49.947Z,84.20
2018-01-13T00:17:49.933Z,85.30
2018-01-13T00:18:49.933Z,84.90
2018-01-13T00:19:49.918Z,89.10
2018-01-13T00:20:49.909Z,85.30
2018-01-13T00:21:49.903Z,84.60
2018-01-13T00:22:49.890Z,83.50
2018-01-13T00:23:49.878Z,87.80
2018-01-13T00:24:49.867Z,78.70
2018-01-13T00:25:49.861Z,83.10
2018-01-13T00:26:49.853Z,87.40
2018-01-13T00:27:49.841Z,87.40
2018-01-13T00:28:49.849Z,84.60
2018-01-13T00:29:49.821Z,78.80
2018-01-13T00:30:49.811Z,78.80
2018-01-13T00:31:49.803Z,70.90
2018-01-13T00:32:49.793Z,70.70
2018-01-13T00:33:49.785Z,73.60
2018-01-13T00:34:49.775Z,83.70
2018-01-13T00:35:49.763Z,77.60
2018-01-13T00:36:49.755Z,74.10
2018-01-13T00:37:49.743Z,75.00
2018-01-13T00:38:49.735Z,74.50
2018-01-13T00:39:49.781Z,79.40
2018-01-13T00:40:49.715Z,72.60
2018-01-13T00:41:49.706Z,70.60
2018-01-13T00:42:49.695Z,70.60
2018-01-13T00:43:49.681Z,75.70
2018-01-13T00:44:49.678Z,70.50
2018-01-13T00:45:49.666Z,73.80
2018-01-13T00:46:49.663Z,69.20
2018-01-13T00:47:49.650Z,75.10
2018-01-13T00:48:49.636Z,69.50
2018-01-13T00:49:49.628Z,76.40
2018-01-13T00:50:49.619Z,70.10
2018-01-13T00:51:49.608Z,71.70
2018-01-13T00:52:49.599Z,73.50
2018-01-13T00:53:49.590Z,76.50
2018-01-13T00:54:49.581Z,72.70
2018-01-13T00:55:49.575Z,72.00
2018-01-13T00:56:49.557Z,69.50
2018-01-13T00:57:49.551Z,70.90
2018-01-13T00:58:49.540Z,69.80
2018-01-13T00:59:49.530Z,69.40
2018-01-13T01:00:49.522Z,74.50
2018-01-13T01:01:49.510Z,75.50
2018-01-13T01:02:49.502Z,74.30
2018-01-13T01:03:49.539Z,67.80
2018-01-13T01:04:49.488Z,72.50
2018-01-13T01:05:49.473Z,69.40
2018-01-13T01:06:49.462Z,66.10
2018-01-13T01:07:49.451Z,70.10
2018-01-13T01:08:49.442Z,72.40
2018-01-13T01:09:49.435Z,67.80
2018-01-13T01:10:49.425Z,66.90
2018-01-13T01:11:49.438Z,63.60
2018-01-13T01:12:49.404Z,63.90
2018-01-13T01:13:49.395Z,65.50
2018-01-13T01:14:49.386Z,66.20
2018-01-13T01:15:49.374Z,65.80
2018-01-13T01:16:49.368Z,67.80
2018-01-13T01:17:49.356Z,67.60
2018-01-13T01:18:49.347Z,62.30
2018-01-13T01:19:49.337Z,61.30
2018-01-13T01:20:49.325Z,66.40
2018-01-13T01:21:49.316Z,65.10
2018-01-13T01:22:49.307Z,63.60
2018-01-13T01:23:49.297Z,66.20
2018-01-13T01:24:49.295Z,64.50
2018-01-13T01:25:49.279Z,64.80
2018-01-13T01:26:49.266Z,63.50
2018-01-13T01:27:49.260Z,61.10
2018-01-13T01:28:49.254Z,64.10
2018-01-13T01:29:49.241Z,64.10
2018-01-13T01:30:49.230Z,63.20
2018-01-13T01:31:49.221Z,63.30
2018-01-13T01:32:49.210Z,62.20
2018-01-13T01:33:49.200Z,62.50
2018-01-13T01:34:49.190Z,59.20
2018-01-13T01:35:49.179Z,60.80
2018-01-13T01:36:49.177Z,57.50
2018-01-13T01:37:49.161Z,59.30
2018-01-13T01:38:49.152Z,60.70
2018-01-13T01:39:49.142Z,59.90
2018-01-13T01:40:49.133Z,65.10
2018-01-13T01:41:49.121Z,61.50
2018-01-13T01:42:49.117Z,60.70
2018-01-13T01:43:49.105Z,61.30
2018-01-13T01:44:49.093Z,62.00
2018-01-13T01:45:49.082Z,58.00
2018-01-13T01:46:49.073Z,60.70
2018-01-13T01:47:49.059Z,60.10
2018-01-13T01:48:49.056Z,62.10
2018-01-13T01:49:49.043Z,63.10
2018-01-13T01:50:49.036Z,59.30
2018-01-13T01:51:49.023Z,61.30
2018-01-13T01:52:49.014Z,59.90
2018-01-13T01:53:49.012Z,62.90
2018-01-13T01:54:48.996Z,61.60
2018-01-13T01:55:48.986Z,66.00
2018-01-13T01:56:48.977Z,58.80
2018-01-13T01:57:48.963Z,60.20
2018-01-13T01:58:48.954Z,59.00
2018-01-13T01:59:48.946Z,62.70
2018-01-13T02:00:48.936Z,63.80
2018-01-13T02:01:48.928Z,61.60
2018-01-13T02:02:48.918Z,61.40
2018-01-13T02:03:48.908Z,61.90
2018-01-13T02:04:48.898Z,63.30
2018-01-13T02:05:48.887Z,68.20
2018-01-13T02:06:48.878Z,65.50
2018-01-13T02:07:48.872Z,64.30
2018-01-13T02:08:48.879Z,67.90
2018-01-13T02:09:48.854Z,63.90
2018-01-13T02:10:48.840Z,63.80
2018-01-13T02:11:48.829Z,60.00
2018-01-13T02:12:48.820Z,65.20
2018-01-13T02:13:48.811Z,68.00
2018-01-13T02:14:48.803Z,62.50
2018-01-13T02:15:48.789Z,64.80
2018-01-13T02:16:48.779Z,64.80
2018-01-13T02:17:48.769Z,64.50
2018-01-13T02:18:48.761Z,66.10
2018-01-13T02:19:48.750Z,66.80
2018-01-13T02:20:48.744Z,68.40
2018-01-13T02:21:48.731Z,65.80
2018-01-13T02:22:48.720Z,63.90
2018-01-13T02:23:48.726Z,70.10
2018-01-13T02:24:48.702Z,69.00
2018-01-13T02:25:48.701Z,67.90
2018-01-13T02:26:48.684Z,67.80
2018-01-13T02:27:48.672Z,68.90
2018-01-13T02:28:48.659Z,63.80
2018-01-13T02:29:48.648Z,68.60
2018-01-13T02:30:48.642Z,71.30
2018-01-13T02:31:48.632Z,71.70
2018-01-13T02:32:48.622Z,73.20
2018-01-13T02:33:48.612Z,73.00
2018-01-13T02:34:48.601Z,72.40
2018-01-13T02:35:48.593Z,72.10
2018-01-13T02:36:48.582Z,69.50
2018-01-13T02:37:48.570Z,72.40
2018-01-13T02:38:48.569Z,74.00
2018-01-13T02:39:48.556Z,74.40
2018-01-13T02:40:48.537Z,74.40
2018-01-13T02:41:48.533Z,76.20
2018-01-13T02:42:48.523Z,72.30
2018-01-13T02:43:48.517Z,73.30
2018-01-13T02:44:48.510Z,78.10
2018-01-13T02:45:48.491Z,77.20
2018-01-13T02:46:48.485Z,79.00
2018-01-13T02:47:48.476Z,79.70
2018-01-13T02:48:48.462Z,77.90
2018-01-13T02:49:48.453Z,77.70
2018-01-13T02:50:48.443Z,77.70
2018-01-13T02:51:48.432Z,82.50
2018-01-13T02:52:48.423Z,75.00
2018-01-13T02:53:48.414Z,78.00
2018-01-13T02:54:48.401Z,77.70
2018-01-13T02:55:48.393Z,76.40
2018-01-13T02:56:48.385Z,78.50
2018-01-13T02:57:48.376Z,79.60
2018-01-13T02:58:48.365Z,79.60
2018-01-13T02:59:48.351Z,84.80
2018-01-13T03:00:48.344Z,84.50
2018-01-13T03:01:48.334Z,81.90
2018-01-13T03:02:48.323Z,84.90
2018-01-13T03:03:48.318Z,81.10
2018-01-13T03:04:48.304Z,83.80
2018-01-13T03:05:48.291Z,88.00
2018-01-13T03:06:48.283Z,87.20
2018-01-13T03:07:48.271Z,83.90
2018-01-13T03:08:48.263Z,85.20
2018-01-13T03:09:48.254Z,88.10
2018-01-13T03:10:48.248Z,85.50
2018-01-13T03:11:48.230Z,85.90
2018-01-13T03:12:48.222Z,82.10
2018-01-13T03:13:48.215Z,86.30
2018-01-13T03:14:48.208Z,84.10
2018-01-13T03:15:48.204Z,84.20
2018-01-13T03:16:48.185Z,89.00
2018-01-13T03:17:48.174Z,88.40
2018-01-13T03:18:48.165Z,88.40
2018-01-13T03:19:48.155Z,92.20
2018-01-13T03:20:48.145Z,88.10
2018-01-13T03:21:48.141Z,86.10
2018-01-13T03:22:48.159Z,89.10
2018-01-13T03:23:48.112Z,89.30
2018-01-13T03:24:48.105Z,89.10
2018-01-13T03:25:48.097Z,89.60
2018-01-13T03:26:48.086Z,85.40
2018-01-13T03:27:48.078Z,87.50
2018-01-13T03:28:48.066Z,85.20
2018-01-13T03:29:48.057Z,93.20
2018-01-13T03:30:48.045Z,90.60
2018-01-13T03:31:48.034Z,88.40
2018-01-13T03:32:48.027Z,87.40
2018-01-13T03:33:48.037Z,85.70
2018-01-13T03:34:48.005Z,91.80
2018-01-13T03:35:47.995Z,90.90
2018-01-13T03:36:47.984Z,95.20
2018-01-13T03:37:47.976Z,86.80
2018-01-13T03:38:47.966Z,85.60
2018-01-13T03:39:47.954Z,91.10
2018-01-13T03:40:47.949Z,89.90
2018-01-13T03:41:47.936Z,94.70
2018-01-13T03:42:47.928Z,89.80
2018-01-13T03:43:47.916Z,87.50
2018-01-13T03:44:47.909Z,87.20
2018-01-13T03:45:47.897Z,93.40
2018-01-13T03:46:47.886Z,93.80
2018-01-13T03:47:47.879Z,88.00
2018-01-13T03:48:47.862Z,92.50
2018-01-13T03:49:47.856Z,86.10
2018-01-13T03:50:47.846Z,87.60
2018-01-13T03:51:47.836Z,90.60
2018-01-13T03:52:47.827Z,88.10
2018-01-13T03:53:47.816Z,89.30
2018-01-13T03:54:47.807Z,89.10
2018-01-13T03:55:47.797Z,91.30
2018-01-13T03:56:47.785Z,88.10
2018-01-13T03:57:47.778Z,86.60
2018-01-13T03:58:47.772Z,86.40
2018-01-13T03:59:47.757Z,88.80
2018-01-13T04:00:47.750Z,86.40
2018-01-13T04:01:47.739Z,92.80
2018-01-13T04:02:47.725Z,79.50
2018-01-13T04:03:47.719Z,81.00
2018-01-13T04:04:47.711Z,82.00
2018-01-13T04:05:47.697Z,87.10
2018-01-13T04:06:47.687Z,79.50
2018-01-13T04:07:47.677Z,86.20
2018-01-13T04:08:47.666Z,87.50
2018-01-13T04:09:47.656Z,81.70
2018-01-13T04:10:47.649Z,85.30
2018-01-13T04:11:47.635Z,84.60
2018-01-13T04:12:47.625Z,81.90
2018-01-13T04:13:47.616Z,79.90
2018-01-13T04:14:47.607Z,83.90
2018-01-13T04:15:47.597Z,84.30
2018-01-13T04:16:47.587Z,85.00
2018-01-13T04:17:47.576Z,82.00
2018-01-13T04:18:47.568Z,80.00
2018-01-13T04:19:47.554Z,86.90
2018-01-13T04:20:47.545Z,83.60
2018-01-13T04:21:47.536Z,86.70
2018-01-13T04:22:47.525Z,81.00
2018-01-13T04:23:47.522Z,76.90
2018-01-13T04:24:47.505Z,83.50
2018-01-13T04:25:47.494Z,80.80
2018-01-13T04:26:47.482Z,77.40
2018-01-13T04:27:47.475Z,80.70
2018-01-13T04:28:47.464Z,81.60
2018-01-13T04:29:47.456Z,75.90
2018-01-13T04:30:47.445Z,76.90
2018-01-13T04:31:47.433Z,77.40
2018-01-13T04:32:47.426Z,78.70
2018-01-13T04:33:47.415Z,79.00
2018-01-13T04:34:47.405Z,75.10
2018-01-13T04:35:47.394Z,77.20
2018-01-13T04:36:47.385Z,75.00
2018-01-13T04:37:47.373Z,75.40
2018-01-13T04:38:47.365Z,76.70
2018-01-13T04:39:47.354Z,74.90
2018-01-13T04:40:47.345Z,74.40
2018-01-13T04:41:47.335Z,75.30
2018-01-13T04:42:47.324Z,75.10
2018-01-13T04:43:47.311Z,76.50
2018-01-13T04:44:47.308Z,75.70
2018-01-13T04:45:47.292Z,75.50
2018-01-13T04:46:47.285Z,68.60
2018-01-13T04:47:47.275Z,69.80
2018-01-13T04:48:47.265Z,73.70
2018-01-13T04:49:47.254Z,74.60
2018-01-13T04:50:47.245Z,71.90
2018-01-13T04:51:47.232Z,69.60
2018-01-13T04:52:47.227Z,73.10
2018-01-13T04:53:47.217Z,68.50
2018-01-13T04:54:47.207Z,70.70
2018-01-13T04:55:47.207Z,70.90
2018-01-13T04:56:47.186Z,72.10
2018-01-13T04:57:47.176Z,75.30
2018-01-13T04:58:47.166Z,70.10
2018-01-13T04:59:47.156Z,71.50
2018-01-13T05:00:47.145Z,71.80
2018-01-13T05:01:47.134Z,73.10
2018-01-13T05:02:47.125Z,68.50
2018-01-13T05:03:47.114Z,65.30
2018-01-13T05:04:47.103Z,72.50
2018-01-13T05:05:47.097Z,71.90
2018-01-13T05:06:47.086Z,68.20
2018-01-13T05:07:47.075Z,68.70
2018-01-13T05:08:47.063Z,71.50
2018-01-13T05:09:47.054Z,67.00
2018-01-13T05:10:47.044Z,69.60
2018-01-13T05:11:47.033Z,70.00
2018-01-13T05:12:47.023Z,65.10
2018-01-13T05:13:47.014Z,66.50
2018-01-13T05:14:47.003Z,67.40
2018-01-13T05:15:46.993Z,68.60
2018-01-13T05:16:46.984Z,67.00
2018-01-13T05:17:46.976Z,66.00
2018-01-13T05:18:46.964Z,65.00
2018-01-13T05:19:46.954Z,66.90
2018-01-13T05:20:46.943Z,66.20
2018-01-13T05:21:46.934Z,67.00
2018-01-13T05:22:46.923Z,67.70
2018-01-13T05:23:46.913Z,66.40
2018-01-13T05:24:46.906Z,64.30
2018-01-13T05:25:46.897Z,63.40
2018-01-13T05:26:46.881Z,63.80
2018-01-13T05:27:46.878Z,68.60
2018-01-13T05:28:46.868Z,62.10
2018-01-13T05:29:46.856Z,63.80
2018-01-13T05:30:46.846Z,60.60
2018-01-13T05:31:46.834Z,63.00
2018-01-13T05:32:46.821Z,60.70
2018-01-13T05:33:46.818Z,61.30
2018-01-13T05:34:46.807Z,63.60
2018-01-13T05:35:46.796Z,60.80
2018-01-13T05:36:46.789Z,61.30
2018-01-13T05:37:46.777Z,59.50
2018-01-13T05:38:46.766Z,63.80
2018-01-13T05:39:46.754Z,61.50
2018-01-13T05:40:46.746Z,61.40
2018-01-13T05:41:46.735Z,61.10
2018-01-13T05:42:46.725Z,62.30
2018-01-13T05:43:46.716Z,61.30
2018-01-13T05:44:46.708Z,60.80
2018-01-13T05:45:46.696Z,60.40
2018-01-13T05:46:46.693Z,59.30
2018-01-13T05:47:46.678Z,61.50
2018-01-13T05:48:46.665Z,57.00
2018-01-13T05:49:46.656Z,60.60
2018-01-13T05:50:46.645Z,56.80
2018-01-13T05:51:46.635Z,57.30
2018-01-13T05:52:46.627Z,59.40
2018-01-13T05:53:46.616Z,59.20
2018-01-13T05:54:46.612Z,56.90
2018-01-13T05:55:46.596Z,55.70
2018-01-13T05:56:46.588Z,56.60
2018-01-13T05:57:46.575Z,53.60
2018-01-13T05:58:46.569Z,53.60
2018-01-13T05:59:46.558Z,52.10
2018-01-13T06:00:46.551Z,53.80
2018-01-13T06:01:46.547Z,52.30
2018-01-13T06:02:46.529Z,54.10
2018-01-13T06:03:46.522Z,53.20
2018-01-13T06:04:46.508Z,52.50
2018-01-13T06:05:46.498Z,51.00
2018-01-13T06:06:46.497Z,49.80
2018-01-13T06:07:46.477Z,52.60
2018-01-13T06:08:46.468Z,51.00
2018-01-13T06:09:46.457Z,52.30
2018-01-13T06:10:47.202Z,52.50
2018-01-13T06:11:46.455Z,53.40
2018-01-13T06:12:46.430Z,51.70
2018-01-13T06:13:46.428Z,48.60
2018-01-13T06:14:46.410Z,50.40
2018-01-13T06:15:46.401Z,49.20
2018-01-13T06:16:46.396Z,50.10
2018-01-13T06:17:46.380Z,48.60
2018-01-13T06:18:46.371Z,50.90
2018-01-13T06:19:46.364Z,51.00
2018-01-13T06:20:46.348Z,51.40
2018-01-13T06:21:46.341Z,50.30
2018-01-13T06:22:46.331Z,50.30
2018-01-13T06:23:46.321Z,50.50
2018-01-13T06:24:46.310Z,49.80
2018-01-13T06:25:46.300Z,49.40
2018-01-13T06:26:46.297Z,49.20
2018-01-13T06:27:46.281Z,47.90
2018-01-13T06:28:46.271Z,48.40
2018-01-13T06:29:46.263Z,47.80
2018-01-13T06:30:46.249Z,47.00
2018-01-13T06:31:46.242Z,47.90
2018-01-13T06:32:46.238Z,48.50
2018-01-13T06:33:46.221Z,46.80
2018-01-13T06:34:46.210Z,47.80
2018-01-13T06:35:46.205Z,49.00
2018-01-13T06:36:46.192Z,47.50
2018-01-13T06:37:46.183Z,47.60
2018-01-13T06:38:46.176Z,48.30
2018-01-13T06:39:46.162Z,45.10
2018-01-13T06:40:46.151Z,46.70
2018-01-13T06:41:46.142Z,46.10
2018-01-13T06:42:46.133Z,46.40
2018-01-13T06:43:46.125Z,45.70
2018-01-13T06:44:46.111Z,45.70
2018-01-13T06:45:46.106Z,43.30
2018-01-13T06:46:46.144Z,45.40
2018-01-13T06:47:46.083Z,45.10
2018-01-13T06:48:46.076Z,44.60
2018-01-13T06:49:46.064Z,46.50
2018-01-13T06:50:46.059Z,44.40
2018-01-13T06:51:46.044Z,45.90
2018-01-13T06:52:46.032Z,43.70
2018-01-13T06:53:46.025Z,43.70
2018-01-13T06:54:46.016Z,44.80
2018-01-13T06:55:46.004Z,44.50
2018-01-13T06:56:45.996Z,42.70
2018-01-13T06:57:45.984Z,43.80
2018-01-13T06:58:45.977Z,42.20
2018-01-13T06:59:45.967Z,40.60
2018-01-13T07:00:45.957Z,42.10
2018-01-13T07:01:45.946Z,41.90
2018-01-13T07:02:45.943Z,42.10
2018-01-13T07:03:45.928Z,43.30
2018-01-13T07:04:45.919Z,40.70
2018-01-13T07:05:45.903Z,41.90
2018-01-13T07:06:45.896Z,43.00
2018-01-13T07:07:45.885Z,41.60
2018-01-13T07:08:45.875Z,42.50
2018-01-13T07:09:45.865Z,42.60
2018-01-13T07:10:45.859Z,42.40
2018-01-13T07:11:45.845Z,42.30
2018-01-13T07:12:45.835Z,40.50
2018-01-13T07:13:45.828Z,42.40
2018-01-13T07:14:45.817Z,40.90
2018-01-13T07:15:45.806Z,39.40
2018-01-13T07:16:45.796Z,40.20
2018-01-13T07:17:45.786Z,39.30
2018-01-13T07:18:45.779Z,38.60
2018-01-13T07:19:45.766Z,39.90
2018-01-13T07:20:45.756Z,39.10
2018-01-13T07:21:45.755Z,37.90
2018-01-13T07:22:45.737Z,38.40
2018-01-13T07:23:45.726Z,38.00
2018-01-13T07:24:45.718Z,38.90
2018-01-13T07:25:45.706Z,38.60
2018-01-13T07:26:45.702Z,39.60
2018-01-13T07:27:45.694Z,39.50
2018-01-13T07:28:45.677Z,38.10
2018-01-13T07:29:45.672Z,38.50
2018-01-13T07:30:45.659Z,38.90
2018-01-13T07:31:45.648Z,37.40
2018-01-13T07:32:45.640Z,37.70
2018-01-13T07:33:45.632Z,37.90
2018-01-13T07:34:45.621Z,36.70
2018-01-13T07:35:45.607Z,37.70
2018-01-13T07:36:45.599Z,35.90
2018-01-13T07:37:45.589Z,37.40
2018-01-13T07:38:45.576Z,36.30
2018-01-13T07:39:45.568Z,35.90
2018-01-13T07:40:45.561Z,34.40
2018-01-13T07:41:45.548Z,32.20
2018-01-13T07:42:45.542Z,34.50
2018-01-13T07:43:45.528Z,33.10
2018-01-13T07:44:45.518Z,32.80
2018-01-13T07:45:45.510Z,33.00
2018-01-13T07:46:45.498Z,33.70
2018-01-13T07:47:45.502Z,33.60
2018-01-13T07:48:45.477Z,32.10
2018-01-13T07:49:45.467Z,34.00
2018-01-13T07:50:45.459Z,34.40
2018-01-13T07:51:45.450Z,32.80
2018-01-13T07:52:45.442Z,34.60
2018-01-13T07:53:45.433Z,34.70
2018-01-13T07:54:45.418Z,30.90
2018-01-13T07:55:45.408Z,32.90
2018-01-13T07:56:45.401Z,30.90
2018-01-13T07:57:45.391Z,31.50
2018-01-13T07:58:45.390Z,30.40
2018-01-13T07:59:45.373Z,30.30
2018-01-13T08:00:45.360Z,29.60
2018-01-13T08:01:45.350Z,28.70
2018-01-13T08:02:45.345Z,27.00
2018-01-13T08:03:45.330Z,29.10
2018-01-13T08:04:45.326Z,28.60
2018-01-13T08:05:45.312Z,28.50
2018-01-13T08:06:45.301Z,28.00
2018-01-13T08:07:45.293Z,28.20
2018-01-13T08:08:45.302Z,29.10
2018-01-13T08:09:45.272Z,28.80
2018-01-13T08:10:45.264Z,29.60
2018-01-13T08:11:45.249Z,28.60
2018-01-13T08:12:45.240Z,28.40
2018-01-13T08:13:45.229Z,27.90
2018-01-13T08:14:45.222Z,27.90
2018-01-13T08:15:45.215Z,29.00
2018-01-13T08:16:45.199Z,28.00
2018-01-13T08:17:45.194Z,27.80
2018-01-13T08:18:45.182Z,26.50
2018-01-13T08:19:45.171Z,28.00
2018-01-13T08:20:45.162Z,27.00
2018-01-13T08:21:45.154Z,25.30
2018-01-13T08:22:45.143Z,24.90
2018-01-13T08:23:45.138Z,25.40
2018-01-13T08:24:45.122Z,24.70
2018-01-13T08:25:45.110Z,25.40
2018-01-13T08:26:45.106Z,24.70
2018-01-13T08:27:45.090Z,23.60
2018-01-13T08:28:45.083Z,25.20
2018-01-13T08:29:45.074Z,23.50
2018-01-13T08:30:45.063Z,25.30
2018-01-13T08:31:45.054Z,25.30
2018-01-13T08:32:45.041Z,25.50
2018-01-13T08:33:45.075Z,25.70
2018-01-13T08:34:45.026Z,25.90
2018-01-13T08:35:45.014Z,27.50
2018-01-13T08:36:45.005Z,26.30
2018-01-13T08:37:44.995Z,26.10
2018-01-13T08:38:44.984Z,25.50
2018-01-13T08:39:44.972Z,24.10
2018-01-13T08:40:44.962Z,25.10
2018-01-13T08:41:44.961Z,24.80
2018-01-13T08:42:44.949Z,25.50
2018-01-13T08:43:44.931Z,24.60
2018-01-13T08:44:44.924Z,24.50
2018-01-13T08:45:44.916Z,24.20
2018-01-13T08:46:44.901Z,24.30
2018-01-13T08:47:44.899Z,23.70
2018-01-13T08:48:44.886Z,23.80
2018-01-13T08:49:44.874Z,23.10
2018-01-13T08:50:44.864Z,23.50
2018-01-13T08:51:44.852Z,23.70
2018-01-13T08:52:44.843Z,24.80
2018-01-13T08:53:44.836Z,23.20
2018-01-13T08:54:44.823Z,23.70
2018-01-13T08:55:44.814Z,24.20
2018-01-13T08:56:44.803Z,23.60
2018-01-13T08:57:44.794Z,23.60
2018-01-13T08:58:44.784Z,22.50
2018-01-13T08:59:44.772Z,22.80
2018-01-13T09:00:44.761Z,22.90
2018-01-13T09:01:44.755Z,23.60
2018-01-13T09:02:44.742Z,23.10
2018-01-13T09:03:44.732Z,23.80
2018-01-13T09:04:44.725Z,22.70
2018-01-13T09:05:44.711Z,23.00
2018-01-13T09:06:44.701Z,22.70
2018-01-13T09:07:44.694Z,22.60
2018-01-13T09:08:44.678Z,22.80
2018-01-13T09:09:44.673Z,22.40
2018-01-13T09:10:44.661Z,20.70
2018-01-13T09:11:44.656Z,22.50
2018-01-13T09:12:44.639Z,21.70
2018-01-13T09:13:44.629Z,22.00
2018-01-13T09:14:44.620Z,21.70
2018-01-13T09:15:44.609Z,21.40
2018-01-13T09:16:44.597Z,22.70
2018-01-13T09:17:44.584Z,21.70
2018-01-13T09:18:44.584Z,21.30
2018-01-13T09:19:44.568Z,22.30
2018-01-13T09:20:44.557Z,20.90
2018-01-13T09:21:44.560Z,22.50
2018-01-13T09:22:44.538Z,20.90
2018-01-13T09:23:44.527Z,22.00
2018-01-13T09:24:44.519Z,20.40
2018-01-13T09:25:44.506Z,23.30
2018-01-13T09:26:44.500Z,22.10
2018-01-13T09:27:44.491Z,22.40
2018-01-13T09:28:44.475Z,22.00
2018-01-13T09:29:44.464Z,23.10
2018-01-13T09:30:44.452Z,21.80
2018-01-13T09:31:44.442Z,21.70
2018-01-13T09:32:44.454Z,21.90
2018-01-13T09:33:44.423Z,22.30
2018-01-13T09:34:44.412Z,21.70
2018-01-13T09:35:44.402Z,22.50
2018-01-13T09:36:44.391Z,21.80
2018-01-13T09:37:44.383Z,21.70
2018-01-13T09:38:44.373Z,22.20
2018-01-13T09:39:44.360Z,20.50
2018-01-13T09:40:44.350Z,21.80
2018-01-13T09:41:44.341Z,21.50
2018-01-13T09:42:44.330Z,20.80
2018-01-13T09:43:44.319Z,21.10
2018-01-13T09:44:44.308Z,20.80
2018-01-13T09:45:44.323Z,21.00
2018-01-13T09:46:44.293Z,20.60
2018-01-13T09:47:44.279Z,20.30
2018-01-13T09:48:44.268Z,20.60
2018-01-13T09:49:44.273Z,20.40
2018-01-13T09:50:44.250Z,19.70
2018-01-13T09:51:44.239Z,19.50
2018-01-13T09:52:44.234Z,18.80
2018-01-13T09:53:44.219Z,19.30
2018-01-13T09:54:44.208Z,19.60
2018-01-13T09:55:44.200Z,19.00
2018-01-13T09:56:44.185Z,20.20
2018-01-13T09:57:44.180Z,19.80
2018-01-13T09:58:44.172Z,19.80
2018-01-13T09:59:44.160Z,20.20
2018-01-13T10:00:44.151Z,19.80
2018-01-13T10:01:44.142Z,19.40
2018-01-13T10:02:44.132Z,19.10
2018-01-13T10:03:44.189Z,18.10
2018-01-13T10:04:44.114Z,18.70
2018-01-13T10:05:44.105Z,19.10
2018-01-13T10:06:44.095Z,19.50
2018-01-13T10:07:44.099Z,19.70
2018-01-13T10:08:44.079Z,19.10
2018-01-13T10:09:44.064Z,18.90
2018-01-13T10:10:44.054Z,19.20
2018-01-13T10:11:44.043Z,19.00
2018-01-13T10:12:44.034Z,18.70
2018-01-13T10:13:44.020Z,16.70
2018-01-13T10:14:44.015Z,18.70
2018-01-13T10:15:44.005Z,18.20
2018-01-13T10:16:43.996Z,18.00
2018-01-13T10:17:43.981Z,18.50
2018-01-13T10:18:43.974Z,19.10
2018-01-13T10:19:43.963Z,19.10
2018-01-13T10:20:43.954Z,18.50
2018-01-13T10:21:43.941Z,18.10
2018-01-13T10:22:43.935Z,18.40
2018-01-13T10:23:43.922Z,19.10
2018-01-13T10:24:43.913Z,19.20
2018-01-13T10:25:43.903Z,19.50
2018-01-13T10:26:43.893Z,18.40
2018-01-13T10:27:43.881Z,17.80
2018-01-13T10:28:43.874Z,18.70
2018-01-13T10:29:43.873Z,18.40
2018-01-13T10:30:43.853Z,18.70
2018-01-13T10:31:43.843Z,19.00
2018-01-13T10:32:43.840Z,19.00
2018-01-13T10:33:43.825Z,18.60
2018-01-13T10:34:43.820Z,19.30
2018-01-13T10:35:43.805Z,18.80
2018-01-13T10:36:43.791Z,19.10
2018-01-13T10:37:43.792Z,19.30
2018-01-13T10:38:43.778Z,18.90
2018-01-13T10:39:43.765Z,18.40
2018-01-13T10:40:43.755Z,18.90
2018-01-13T10:41:43.742Z,19.70
2018-01-13T10:42:43.729Z,18.20
2018-01-13T10:43:43.728Z,19.80
2018-01-13T10:44:43.727Z,19.30
2018-01-13T10:45:43.705Z,20.30
2018-01-13T10:46:43.704Z,19.60
2018-01-13T10:47:43.685Z,20.60
2018-01-13T10:48:43.675Z,19.90
2018-01-13T10:49:43.666Z,20.60
2018-01-13T10:50:43.655Z,19.30
2018-01-13T10:51:43.649Z,20.90
2018-01-13T10:52:43.637Z,20.20
2018-01-13T10:53:43.643Z,21.10
2018-01-13T10:54:43.616Z,21.10
2018-01-13T10:55:43.604Z,21.20
2018-01-13T10:56:43.595Z,20.40
2018-01-13T10:57:43.584Z,21.30
2018-01-13T10:58:43.574Z,20.00
2018-01-13T10:59:43.602Z,21.70
2018-01-13T11:00:43.555Z,20.60
2018-01-13T11:01:43.545Z,20.50
2018-01-13T11:02:43.536Z,21.40
2018-01-13T11:03:43.525Z,21.30
2018-01-13T11:04:43.513Z,20.60
2018-01-13T11:05:43.507Z,21.40
2018-01-13T11:06:43.495Z,21.30
2018-01-13T11:07:43.483Z,21.10
2018-01-13T11:08:43.476Z,20.80
2018-01-13T11:09:43.476Z,21.40
2018-01-13T11:10:43.452Z,20.20
2018-01-13T11:11:43.443Z,19.40
2018-01-13T11:12:43.438Z,21.00
2018-01-13T11:13:43.427Z,20.50
2018-01-13T11:14:43.412Z,20.80
2018-01-13T11:15:43.410Z,20.70
2018-01-13T11:16:43.390Z,20.90
2018-01-13T11:17:43.386Z,21.00
2018-01-13T11:18:43.375Z,19.20
2018-01-13T11:19:43.363Z,20.00
2018-01-13T11:20:43.350Z,20.30
2018-01-13T11:21:43.348Z,19.20
2018-01-13T11:22:43.335Z,19.80
2018-01-13T11:23:43.324Z,21.00
2018-01-13T11:24:43.317Z,18.30
2018-01-13T11:25:43.305Z,20.10
2018-01-13T11:26:43.306Z,19.90
2018-01-13T11:27:43.798Z,20.20
2018-01-13T11:28:43.274Z,20.60
2018-01-13T11:29:43.269Z,20.10
2018-01-13T11:30:43.254Z,21.00
2018-01-13T11:31:43.242Z,19.40
2018-01-13T11:32:43.264Z,20.60
2018-01-13T11:33:43.225Z,20.90
2018-01-13T11:34:43.215Z,20.80
2018-01-13T11:35:43.206Z,20.90
2018-01-13T11:36:43.194Z,20.60
2018-01-13T11:37:43.182Z,20.00
2018-01-13T11:38:43.185Z,20.30
2018-01-13T11:39:43.162Z,19.90
2018-01-13T11:40:43.152Z,19.30
2018-01-13T11:41:43.163Z,19.80
2018-01-13T11:42:43.132Z,20.10
2018-01-13T11:43:43.124Z,19.80
2018-01-13T11:44:43.114Z,18.70
2018-01-13T11:45:43.100Z,19.40
2018-01-13T11:46:43.093Z,18.30
2018-01-13T11:47:43.087Z,19.50
2018-01-13T11:48:43.073Z,19.30
2018-01-13T11:49:43.063Z,18.40
2018-01-13T11:50:43.156Z,17.30
2018-01-13T11:51:43.084Z,18.20
2018-01-13T11:52:43.319Z,17.50
2018-01-13T11:53:43.154Z,18.20
2018-01-13T11:54:43.028Z,18.50
2018-01-13T11:55:43.223Z,18.10
2018-01-13T11:56:43.118Z,18.10
2018-01-13T11:57:43.114Z,18.10
2018-01-13T11:58:43.085Z,18.30
2018-01-13T11:59:43.076Z,18.30
2018-01-13T12:00:42.996Z,18.10
2018-01-13T12:01:43.020Z,17.80
2018-01-13T12:02:42.929Z,17.50
2018-01-13T12:03:42.922Z,17.40
2018-01-13T12:04:42.912Z,16.50
2018-01-13T12:05:42.897Z,16.20
2018-01-13T12:06:42.892Z,16.90
2018-01-13T12:07:42.882Z,16.70
2018-01-13T12:08:42.872Z,15.50
2018-01-13T12:09:42.860Z,16.30
2018-01-13T12:10:42.853Z,16.70
2018-01-13T12:11:42.837Z,16.50
2018-01-13T12:12:42.830Z,17.10
2018-01-13T12:13:42.847Z,16.90
2018-01-13T12:14:42.810Z,17.60
2018-01-13T12:15:42.801Z,17.10
2018-01-13T12:16:42.791Z,17.40
2018-01-13T12:17:42.778Z,17.00
2018-01-13T12:18:42.771Z,17.00
2018-01-13T12:19:42.761Z,16.90
2018-01-13T12:20:42.750Z,16.10
2018-01-13T12:21:42.740Z,16.10
2018-01-13T12:22:42.734Z,15.30
2018-01-13T12:23:42.752Z,15.90
2018-01-13T12:24:42.709Z,15.80
2018-01-13T12:25:42.705Z,16.40
2018-01-13T12:26:42.691Z,16.00
2018-01-13T12:27:42.685Z,17.50
2018-01-13T12:28:42.702Z,16.70
2018-01-13T12:29:42.660Z,17.10
2018-01-13T12:30:42.652Z,17.80
2018-01-13T12:31:42.640Z,15.80
2018-01-13T12:32:42.629Z,16.20
2018-01-13T12:33:42.621Z,16.50
2018-01-13T12:34:42.620Z,15.80
2018-01-13T12:35:42.598Z,15.30
2018-01-13T12:36:42.587Z,15.80
2018-01-13T12:37:42.578Z,16.70
2018-01-13T12:38:42.573Z,17.10
2018-01-13T12:39:42.562Z,16.20
2018-01-13T12:40:42.569Z,15.90
2018-01-13T12:41:42.540Z,15.30
2018-01-13T12:42:42.526Z,16.20
2018-01-13T12:43:42.519Z,16.00
2018-01-13T12:44:42.508Z,15.70
2018-01-13T12:45:42.494Z,15.70
2018-01-13T12:46:42.487Z,15.90
2018-01-13T12:47:42.475Z,14.90
2018-01-13T12:48:42.464Z,15.00
2018-01-13T12:49:42.464Z,16.00
2018-01-13T12:50:42.443Z,16.70
2018-01-13T12:51:42.435Z,16.30
2018-01-13T12:52:42.423Z,17.00